Terminal Aerodrome Forecast
Issued by NWS

Home | Current Version | Previous Version | Text Only | Print | Product List | Glossary On
Versions: 1 2 3 4 5 6 7 8 9 10 11 12 13 14 15 16 17 18
000
FTUS43 KAPX 211136
TAFPLN
TAF
KPLN 211136Z 2112/2212 12004KT P6SM OVC035
     FM211700 16004KT P6SM OVC020
     FM220700 17006KT P6SM SCT040 OVC120=

USA.gov is the U.S. government's official web portal to all federal, state and local government web resources and services.